Time;durP1;ratioP1;P1;durP2;ratioP2;P2;SDS_P1;SDS_P2;PMS_P1;PMS_P2;Temp;Humidity;BMP_temperature;BMP_pressure;BME280_temperature;BME280_humidity;BME280_pressure;Samples;Min_cycle;Max_cycle;Signal;HPM_P1;HPM_P2
2023/11/03 00:00:05;;;;;;;5.75;1.95;;;4.20;99.90;;;;;;5087346;28;20052;-83
2023/11/03 00:02:52;;;;;;;8.10;1.88;;;4.20;99.90;;;;;;5092665;28;20044;-83
2023/11/03 00:05:43;;;;;;;8.10;2.10;;;4.40;99.90;;;;;;5082769;28;20097;-84
2023/11/03 00:08:31;;;;;;;7.40;2.00;;;4.50;99.90;;;;;;5082626;28;20376;-82
2023/11/03 00:11:19;;;;;;;5.57;2.10;;;4.70;99.90;;;;;;5089338;28;20040;-84
2023/11/03 00:14:07;;;;;;;6.18;2.08;;;4.80;99.90;;;;;;5093334;28;20044;-79
2023/11/03 00:16:57;;;;;;;7.40;1.95;;;4.70;99.90;;;;;;5086184;28;20324;-82
2023/11/03 00:19:46;;;;;;;12.43;2.00;;;4.60;99.90;;;;;;5083228;28;20100;-84
2023/11/03 00:22:36;;;;;;;8.52;2.92;;;4.60;99.90;;;;;;5070521;28;20048;-83
2023/11/03 00:25:25;;;;;;;11.32;2.15;;;4.50;99.90;;;;;;5088162;28;20040;-84
2023/11/03 00:28:13;;;;;;;12.65;2.33;;;4.50;99.90;;;;;;5070453;28;20408;-82
2023/11/03 00:31:00;;;;;;;8.23;1.90;;;4.60;99.90;;;;;;5098028;28;20044;-79
2023/11/03 00:33:51;;;;;;;13.60;2.28;;;4.70;99.90;;;;;;5094092;28;20345;-83
2023/11/03 00:36:42;;;;;;;7.22;1.77;;;4.70;99.90;;;;;;5086024;28;20064;-83
2023/11/03 00:39:29;;;;;;;9.73;2.15;;;4.70;99.90;;;;;;5096034;28;20150;-83
2023/11/03 00:42:19;;;;;;;12.60;2.55;;;4.60;99.90;;;;;;5096142;28;20052;-80
2023/11/03 00:45:07;;;;;;;10.02;2.60;;;4.60;99.90;;;;;;5093589;28;20073;-84
2023/11/03 00:47:56;;;;;;;18.52;2.13;;;4.60;99.90;;;;;;5089493;28;20056;-82
2023/11/03 00:50:46;;;;;;;9.65;2.55;;;4.60;99.90;;;;;;5087629;28;20051;-84
2023/11/03 00:53:33;;;;;;;10.10;2.38;;;4.50;99.90;;;;;;5096826;28;20062;-83
2023/11/03 00:56:20;;;;;;;11.48;1.90;;;4.50;99.90;;;;;;5098123;28;20075;-83
2023/11/03 00:59:08;;;;;;;8.50;1.83;;;4.40;99.90;;;;;;5077170;28;20044;-83
2023/11/03 01:01:55;;;;;;;10.50;2.30;;;4.30;99.90;;;;;;5094642;28;20388;-84
2023/11/03 01:04:45;;;;;;;5.78;1.80;;;4.20;99.90;;;;;;5097474;28;20044;-85
2023/11/03 01:07:35;;;;;;;7.72;2.08;;;4.00;99.90;;;;;;5079640;28;20048;-84
2023/11/03 01:10:27;;;;;;;11.20;2.70;;;3.90;99.90;;;;;;5062404;28;20128;-84
2023/11/03 01:13:15;;;;;;;8.20;2.22;;;3.70;99.90;;;;;;5081191;28;20123;-84
2023/11/03 01:16:07;;;;;;;12.45;2.55;;;3.60;99.90;;;;;;5084258;28;20522;-80
2023/11/03 01:18:54;;;;;;;15.80;2.55;;;3.40;99.90;;;;;;5079205;28;20049;-79
2023/11/03 01:21:43;;;;;;;12.88;2.72;;;3.60;99.90;;;;;;5077400;28;20052;-82
2023/11/03 01:24:31;;;;;;;11.05;2.85;;;3.70;99.90;;;;;;5060260;28;20055;-85
2023/11/03 01:27:22;;;;;;;12.18;2.42;;;3.80;99.90;;;;;;5087998;28;20048;-79
2023/11/03 01:30:10;;;;;;;11.73;2.67;;;4.00;99.90;;;;;;5094977;28;20028;-81
2023/11/03 01:32:57;;;;;;;13.40;3.28;;;4.10;99.90;;;;;;5101195;28;20538;-81
2023/11/03 01:35:45;;;;;;;7.40;2.40;;;4.20;99.90;;;;;;5103019;28;20051;-84
2023/11/03 01:38:33;;;;;;;7.90;2.15;;;4.40;99.90;;;;;;5103227;28;20108;-83
2023/11/03 01:41:20;;;;;;;11.65;2.75;;;4.40;99.90;;;;;;5101518;28;20044;-84
2023/11/03 01:44:11;;;;;;;9.98;2.38;;;4.40;99.90;;;;;;5079916;28;20360;-84
2023/11/03 01:47:03;;;;;;;14.35;2.80;;;4.30;99.90;;;;;;5101609;28;20044;-80
2023/11/03 01:49:53;;;;;;;6.13;2.15;;;4.30;99.90;;;;;;5102734;28;20044;-84
2023/11/03 01:52:46;;;;;;;9.02;1.95;;;4.30;99.90;;;;;;5092213;28;20040;-84
2023/11/03 01:55:36;;;;;;;14.93;2.88;;;4.40;99.90;;;;;;5102205;28;20048;-80
2023/11/03 01:58:24;;;;;;;13.30;1.85;;;4.40;99.90;;;;;;5083852;28;20047;-83
2023/11/03 02:01:13;;;;;;;11.38;2.30;;;4.40;99.90;;;;;;5083520;28;20044;-85
2023/11/03 02:04:03;;;;;;;12.55;2.03;;;4.40;99.90;;;;;;5089089;28;20516;-84
2023/11/03 02:06:51;;;;;;;12.68;2.35;;;4.50;99.90;;;;;;5102365;28;20040;-79
2023/11/03 02:09:38;;;;;;;9.07;2.40;;;4.50;99.90;;;;;;5103583;28;20059;-84
2023/11/03 02:12:26;;;;;;;7.45;2.25;;;4.50;99.90;;;;;;5104861;28;20040;-83
2023/11/03 02:15:16;;;;;;;7.03;1.67;;;4.60;99.90;;;;;;5105528;28;20048;-84
2023/11/03 02:18:03;;;;;;;10.43;2.25;;;4.70;99.90;;;;;;5107241;28;20052;-83
2023/11/03 02:20:50;;;;;;;12.98;2.67;;;4.70;99.90;;;;;;5109071;28;20052;-83
2023/11/03 02:23:38;;;;;;;7.13;2.10;;;4.70;99.90;;;;;;5097636;28;20044;-83
2023/11/03 02:26:25;;;;;;;15.70;2.67;;;4.70;99.90;;;;;;5112149;28;20104;-83
2023/11/03 02:29:18;;;;;;;8.23;1.90;;;4.70;99.90;;;;;;5113267;28;20036;-83
2023/11/03 02:32:07;;;;;;;9.93;2.58;;;4.70;99.90;;;;;;5113610;28;20060;-79
2023/11/03 02:34:58;;;;;;;7.47;1.98;;;4.60;99.90;;;;;;5108074;28;20047;-84
2023/11/03 02:37:46;;;;;;;7.07;1.70;;;4.60;99.90;;;;;;5102024;28;20044;-84
2023/11/03 02:40:33;;;;;;;13.05;1.90;;;4.60;99.90;;;;;;5103012;28;20198;-84
2023/11/03 02:43:23;;;;;;;6.45;1.70;;;4.60;99.90;;;;;;5086098;28;20240;-84
2023/11/03 02:46:11;;;;;;;6.63;2.08;;;4.60;99.90;;;;;;5099895;28;20423;-83
2023/11/03 02:49:00;;;;;;;10.27;2.00;;;4.60;99.90;;;;;;5096827;28;20258;-84
2023/11/03 02:51:51;;;;;;;6.45;1.95;;;4.60;99.90;;;;;;5087628;28;20131;-82
2023/11/03 02:54:40;;;;;;;7.88;2.22;;;4.70;99.90;;;;;;5086334;28;20171;-81
2023/11/03 02:57:28;;;;;;;10.13;1.90;;;4.70;94.50;;;;;;5085422;28;20125;-84
2023/11/03 03:00:16;;;;;;;7.68;2.08;;;4.60;99.90;;;;;;5089910;28;20075;-83
2023/11/03 03:03:06;;;;;;;6.22;1.70;;;4.60;99.90;;;;;;5093461;28;20080;-83
2023/11/03 03:05:57;;;;;;;9.27;2.20;;;4.60;99.90;;;;;;5080248;28;20052;-83
2023/11/03 03:08:48;;;;;;;10.18;1.88;;;4.50;99.90;;;;;;5102208;28;20040;-84
2023/11/03 03:11:35;;;;;;;9.90;2.00;;;4.50;99.90;;;;;;5098189;28;20058;-84
2023/11/03 03:14:23;;;;;;;7.53;1.92;;;4.50;99.90;;;;;;5101526;28;20048;-83
2023/11/03 03:17:10;;;;;;;9.70;2.20;;;4.50;99.90;;;;;;5085638;28;20059;-83
2023/11/03 03:19:57;;;;;;;6.78;2.00;;;4.40;99.90;;;;;;5095373;28;20519;-84
2023/11/03 03:22:44;;;;;;;8.82;1.80;;;4.40;99.90;;;;;;5087549;28;20063;-83
2023/11/03 03:25:34;;;;;;;5.45;1.75;;;4.40;99.90;;;;;;5064663;28;20059;-83
2023/11/03 03:28:21;;;;;;;6.32;1.85;;;4.40;99.90;;;;;;5060173;28;20064;-84
2023/11/03 03:31:09;;;;;;;5.75;1.98;;;4.40;99.90;;;;;;5067535;28;20058;-81
2023/11/03 03:33:56;;;;;;;6.03;2.05;;;4.40;99.90;;;;;;5065260;28;20046;-83
2023/11/03 03:36:49;;;;;;;5.47;2.28;;;4.30;99.90;;;;;;5067698;28;20166;-84
2023/11/03 03:39:38;;;;;;;4.50;1.80;;;4.30;99.90;;;;;;5065671;28;20330;-84
2023/11/03 03:42:27;;;;;;;6.90;1.90;;;4.30;99.90;;;;;;5070054;28;20048;-82
2023/11/03 03:45:19;;;;;;;8.38;1.95;;;4.30;99.90;;;;;;5092096;28;20044;-84
2023/11/03 03:48:06;;;;;;;11.10;2.67;;;4.20;99.90;;;;;;5090122;28;20044;-84
2023/11/03 03:50:54;;;;;;;7.43;2.03;;;4.20;99.90;;;;;;5091079;28;20048;-84
2023/11/03 03:53:41;;;;;;;7.90;2.53;;;4.20;99.90;;;;;;5075576;28;20040;-83
2023/11/03 03:56:31;;;;;;;13.68;2.78;;;4.20;99.90;;;;;;5076332;28;20067;-84
2023/11/03 03:59:18;;;;;;;7.90;2.67;;;4.20;99.90;;;;;;5072679;28;20049;-84
2023/11/03 04:02:05;;;;;;;11.75;2.15;;;4.30;99.90;;;;;;5077160;28;20056;-84
2023/11/03 04:04:52;;;;;;;8.57;2.42;;;4.30;99.90;;;;;;5092414;28;20055;-83
2023/11/03 04:07:40;;;;;;;5.88;1.92;;;4.30;99.90;;;;;;5082206;28;20060;-83
2023/11/03 04:10:27;;;;;;;8.73;3.40;;;4.40;99.90;;;;;;5097462;28;20595;-84
2023/11/03 04:13:17;;;;;;;9.40;2.70;;;4.40;99.90;;;;;;5082122;28;20364;-83
2023/11/03 04:16:08;;;;;;;5.40;2.05;;;4.30;99.90;;;;;;5089297;28;20039;-83
2023/11/03 04:18:57;;;;;;;4.65;2.10;;;4.20;99.90;;;;;;5083274;28;20114;-85
2023/11/03 04:21:45;;;;;;;6.38;2.22;;;4.20;99.90;;;;;;5094985;28;20047;-84
2023/11/03 04:24:35;;;;;;;5.60;2.00;;;4.20;99.90;;;;;;5078696;28;20131;-83
2023/11/03 04:27:25;;;;;;;5.88;2.00;;;4.20;99.90;;;;;;5083716;28;20044;-84
2023/11/03 04:30:12;;;;;;;5.13;1.77;;;4.30;99.90;;;;;;5084731;28;20055;-82
2023/11/03 04:33:00;;;;;;;7.82;1.98;;;4.30;99.90;;;;;;5087177;28;20052;-84
2023/11/03 04:35:47;;;;;;;8.70;2.42;;;4.30;99.90;;;;;;5090188;28;20134;-84
2023/11/03 04:38:35;;;;;;;10.10;2.50;;;4.30;99.90;;;;;;5096074;28;20051;-83
2023/11/03 04:41:24;;;;;;;10.23;2.50;;;4.30;99.90;;;;;;5081067;28;20676;-83
2023/11/03 04:44:11;;;;;;;11.95;3.75;;;4.30;99.90;;;;;;5080767;28;20043;-83
2023/11/03 04:46:58;;;;;;;6.40;2.28;;;4.40;99.90;;;;;;5076699;28;20044;-80
2023/11/03 04:49:46;;;;;;;13.88;2.30;;;4.40;99.90;;;;;;5080089;28;20175;-83
2023/11/03 04:52:38;;;;;;;6.15;2.00;;;4.50;99.90;;;;;;5092905;28;20058;-84
2023/11/03 04:55:25;;;;;;;8.30;2.22;;;4.50;99.90;;;;;;5091499;28;20460;-83
2023/11/03 04:58:15;;;;;;;8.40;2.10;;;4.60;99.90;;;;;;5072581;28;20048;-85
2023/11/03 05:01:03;;;;;;;8.80;1.73;;;4.60;99.90;;;;;;5087505;28;20059;-81
2023/11/03 05:03:50;;;;;;;10.68;2.35;;;4.60;99.90;;;;;;5071202;28;20048;-81
2023/11/03 05:06:42;;;;;;;8.63;1.77;;;4.60;99.90;;;;;;5091899;28;20040;-83
2023/11/03 05:09:29;;;;;;;12.65;2.92;;;4.60;99.90;;;;;;5078043;28;20191;-79
2023/11/03 05:12:16;;;;;;;8.95;2.35;;;4.60;99.90;;;;;;5093655;28;20051;-83
2023/11/03 05:15:08;;;;;;;5.43;2.38;;;4.60;99.90;;;;;;5090105;28;20040;-84
2023/11/03 05:18:01;;;;;;;6.60;2.13;;;4.60;99.90;;;;;;5087082;28;20149;-84
2023/11/03 05:20:48;;;;;;;5.35;1.90;;;4.50;99.90;;;;;;5093073;28;20126;-83
2023/11/03 05:23:35;;;;;;;6.28;2.15;;;4.60;99.90;;;;;;5092042;28;20062;-82
2023/11/03 05:26:25;;;;;;;6.38;2.25;;;4.70;99.90;;;;;;5079723;28;20436;-83
2023/11/03 05:29:16;;;;;;;7.32;2.45;;;4.70;99.90;;;;;;5091250;28;20127;-83
2023/11/03 05:32:13;;;;;;;7.95;2.38;;;4.70;99.90;;;;;;5088778;28;20134;-79
2023/11/03 05:35:03;;;;;;;8.57;2.50;;;4.70;99.90;;;;;;5074893;28;20383;-81
2023/11/03 05:37:51;;;;;;;10.23;3.63;;;4.60;99.90;;;;;;5089715;28;20572;-82
2023/11/03 05:40:41;;;;;;;5.57;2.20;;;4.60;99.90;;;;;;5085609;22;20127;-81
2023/11/03 05:43:31;;;;;;;5.53;2.70;;;4.60;99.90;;;;;;5023336;28;20133;-81
2023/11/03 05:46:18;;;;;;;7.60;2.25;;;4.60;99.90;;;;;;4969999;28;20046;-81
2023/11/03 05:49:06;;;;;;;7.40;2.33;;;4.70;99.90;;;;;;4968784;28;20039;-81
2023/11/03 05:51:54;;;;;;;9.27;2.20;;;4.70;99.90;;;;;;4961345;28;20054;-82
2023/11/03 05:54:41;;;;;;;7.10;1.67;;;4.80;99.90;;;;;;4967127;28;20042;-83
2023/11/03 05:57:28;;;;;;;11.70;2.40;;;4.90;99.90;;;;;;4963248;28;20047;-87
2023/11/03 06:00:16;;;;;;;6.22;2.13;;;4.90;99.90;;;;;;4976332;28;20065;-85
2023/11/03 06:03:03;;;;;;;5.32;1.90;;;4.90;99.90;;;;;;5018959;28;20055;-86
2023/11/03 06:05:51;;;;;;;9.75;2.83;;;4.90;99.90;;;;;;5020943;28;20326;-85
2023/11/03 06:08:43;;;;;;;6.47;2.25;;;4.90;99.90;;;;;;4965682;28;20043;-85
2023/11/03 06:11:30;;;;;;;6.57;2.22;;;5.00;99.90;;;;;;4968824;28;20071;-86
2023/11/03 06:14:18;;;;;;;6.05;2.22;;;5.00;99.90;;;;;;5042134;28;20040;-86
2023/11/03 06:17:05;;;;;;;7.50;2.40;;;5.10;99.90;;;;;;5016635;28;20043;-83
2023/11/03 06:19:55;;;;;;;7.68;2.22;;;5.10;99.90;;;;;;5041221;28;20066;-83
2023/11/03 06:22:42;;;;;;;7.47;2.10;;;5.10;99.90;;;;;;4956569;28;20066;-83
2023/11/03 06:25:30;;;;;;;4.53;2.20;;;5.10;99.90;;;;;;4970180;28;20508;-82
2023/11/03 06:28:17;;;;;;;8.32;1.92;;;5.10;99.90;;;;;;4970953;28;20412;-82
2023/11/03 06:31:05;;;;;;;4.95;2.10;;;5.10;99.90;;;;;;4975529;28;20108;-82
2023/11/03 06:33:52;;;;;;;9.13;1.95;;;5.10;99.90;;;;;;4985479;28;20460;-78
2023/11/03 06:36:39;;;;;;;6.03;2.55;;;5.10;99.90;;;;;;4965407;28;20039;-82
2023/11/03 06:39:35;;;;;;;10.45;2.40;;;5.10;99.90;;;;;;4976361;28;20050;-79
2023/11/03 06:42:23;;;;;;;9.55;2.40;;;5.00;99.90;;;;;;4957444;28;20043;-78
2023/11/03 06:45:11;;;;;;;10.23;3.03;;;5.00;99.90;;;;;;5011295;28;20054;-83
2023/11/03 06:48:05;;;;;;;8.27;2.78;;;5.00;99.90;;;;;;4973308;28;20047;-87
2023/11/03 06:50:55;;;;;;;8.30;2.67;;;5.00;99.90;;;;;;4977173;28;20047;-86
2023/11/03 06:53:44;;;;;;;12.52;2.80;;;5.00;99.90;;;;;;4996897;28;20040;-86
2023/11/03 06:56:34;;;;;;;5.47;2.05;;;5.00;99.90;;;;;;4971569;28;20439;-86
2023/11/03 06:59:21;;;;;;;6.45;2.17;;;5.00;99.90;;;;;;5029978;28;20046;-87
2023/11/03 07:02:08;;;;;;;6.15;2.53;;;5.00;99.90;;;;;;4974034;28;20102;-85
2023/11/03 07:04:55;;;;;;;13.75;3.72;;;5.00;99.90;;;;;;5013465;28;20053;-85
2023/11/03 07:07:43;;;;;;;9.57;2.60;;;5.00;99.90;;;;;;4978834;28;20737;-83
2023/11/03 07:10:33;;;;;;;6.10;2.40;;;5.10;99.90;;;;;;4980696;28;20090;-85
2023/11/03 07:13:20;;;;;;;7.88;2.25;;;5.10;99.90;;;;;;4967732;28;20122;-84
2023/11/03 07:16:08;;;;;;;14.20;3.03;;;5.10;99.90;;;;;;4968772;28;20047;-85
2023/11/03 07:18:55;;;;;;;9.27;2.97;;;5.10;99.90;;;;;;5025357;28;20744;-85
2023/11/03 07:21:50;;;;;;;9.52;2.90;;;5.10;99.90;;;;;;4972485;28;20096;-80
2023/11/03 07:24:37;;;;;;;6.47;3.15;;;5.00;99.90;;;;;;4987339;28;20062;-85
2023/11/03 07:27:25;;;;;;;7.63;3.17;;;5.10;99.90;;;;;;4972948;28;20051;-81
2023/11/03 07:30:12;;;;;;;11.77;3.60;;;5.00;99.90;;;;;;4971585;28;20410;-84
2023/11/03 07:33:02;;;;;;;12.85;3.90;;;5.10;99.90;;;;;;4971830;28;20146;-84
2023/11/03 07:35:52;;;;;;;8.13;3.75;;;5.10;99.90;;;;;;4973638;28;20111;-87
2023/11/03 07:38:40;;;;;;;17.17;4.00;;;5.10;99.90;;;;;;4968209;28;20039;-84
2023/11/03 07:41:39;;;;;;;15.02;3.72;;;5.20;99.90;;;;;;5053870;28;20118;-78
2023/11/03 07:44:26;;;;;;;9.23;4.25;;;5.20;99.90;;;;;;5038519;28;20078;-83
2023/11/03 07:47:13;;;;;;;10.60;3.63;;;5.30;99.90;;;;;;4983575;28;20469;-84
2023/11/03 07:50:01;;;;;;;11.27;4.15;;;5.30;99.90;;;;;;4970601;28;20437;-81
2023/11/03 07:52:48;;;;;;;16.30;4.30;;;5.30;99.90;;;;;;5028003;28;20102;-85
2023/11/03 07:55:38;;;;;;;7.25;2.97;;;5.40;99.90;;;;;;5031428;28;20051;-80
2023/11/03 07:58:27;;;;;;;7.85;3.13;;;5.40;99.90;;;;;;5015688;28;20046;-84
2023/11/03 08:01:17;;;;;;;7.05;2.88;;;5.40;99.90;;;;;;5016726;28;20500;-83
2023/11/03 08:04:07;;;;;;;6.40;2.40;;;5.60;99.90;;;;;;4973555;28;20134;-84
2023/11/03 08:06:57;;;;;;;11.30;2.42;;;5.60;99.90;;;;;;4983456;28;20038;-84
2023/11/03 08:09:44;;;;;;;8.93;2.22;;;5.70;99.90;;;;;;4984882;28;20119;-82
2023/11/03 08:12:38;;;;;;;11.00;2.60;;;5.80;97.40;;;;;;4989166;28;20054;-84
2023/11/03 08:15:28;;;;;;;15.25;2.92;;;5.80;52.00;;;;;;5032016;28;20054;-85
2023/11/03 08:18:18;;;;;;;7.40;2.33;;;5.90;31.20;;;;;;4972683;28;20185;-84
2023/11/03 08:21:07;;;;;;;11.38;3.30;;;5.90;24.70;;;;;;5019617;28;20053;-84
2023/11/03 08:23:55;;;;;;;9.82;3.67;;;6.00;18.90;;;;;;4970022;28;20054;-84
2023/11/03 08:26:46;;;;;;;10.60;2.53;;;6.00;10.20;;;;;;5026793;28;20056;-84
2023/11/03 08:29:33;;;;;;;9.60;2.78;;;6.00;1.00;;;;;;5006009;28;20082;-83
2023/11/03 08:32:23;;;;;;;9.48;2.70;;;6.10;1.00;;;;;;4973802;28;20047;-83
2023/11/03 08:35:14;;;;;;;8.50;2.65;;;6.20;1.00;;;;;;5020072;28;20058;-82
2023/11/03 08:38:03;;;;;;;2.80;1.95;;;6.20;1.00;;;;;;5027660;28;20051;-82
2023/11/03 08:40:54;;;;;;;8.93;2.50;;;6.20;1.00;;;;;;4989737;28;20045;-82
2023/11/03 08:43:48;;;;;;;7.95;2.50;;;6.20;1.00;;;;;;4992330;28;20043;-83
2023/11/03 08:46:36;;;;;;;5.15;2.42;;;6.30;1.00;;;;;;4974317;28;20050;-83
2023/11/03 08:49:24;;;;;;;9.20;1.90;;;6.40;1.00;;;;;;4971309;28;20050;-85
2023/11/03 08:52:16;;;;;;;;;;;6.40;99.90;;;;;;4995857;28;20639;-82
2023/11/03 08:55:08;;;;;;;5.57;2.13;;;6.40;99.90;;;;;;5028328;28;19933;-82
2023/11/03 08:57:57;;;;;;;6.53;2.20;;;6.50;99.90;;;;;;5018962;28;20390;-82
2023/11/03 09:00:51;;;;;;;2.13;1.60;;;6.50;99.90;;;;;;4978910;28;20154;-80
2023/11/03 09:03:39;;;;;;;6.53;2.05;;;6.60;99.90;;;;;;4981533;28;20050;-83
2023/11/03 09:06:26;;;;;;;5.78;2.50;;;6.60;99.90;;;;;;5020197;28;20130;-82
2023/11/03 09:09:18;;;;;;;3.92;1.75;;;6.60;93.20;;;;;;5029523;28;20119;-82
2023/11/03 09:12:08;;;;;;;5.65;1.95;;;6.60;34.10;;;;;;5023212;28;20047;-82
2023/11/03 09:14:58;;;;;;;7.72;2.13;;;6.70;96.80;;;;;;4966829;28;20508;-83
2023/11/03 09:17:45;;;;;;;5.05;1.77;;;6.80;1.00;;;;;;4968366;28;20051;-82
2023/11/03 09:20:33;;;;;;;3.53;1.75;;;6.90;1.00;;;;;;4958000;28;20058;-82
2023/11/03 09:23:21;;;;;;;5.50;2.00;;;6.70;99.90;;;;;;4982377;28;20391;-83
2023/11/03 09:26:11;;;;;;;5.47;1.60;;;6.80;99.90;;;;;;5030692;28;20142;-83
2023/11/03 09:29:22;;;;;;;4.18;1.80;;;6.80;99.90;;;;;;4971726;28;20046;-83
2023/11/03 09:32:13;;;;;;;2.20;1.80;;;6.90;99.90;;;;;;5024368;28;20463;-83
2023/11/03 09:35:04;;;;;;;4.30;2.08;;;7.00;99.90;;;;;;5023512;28;20058;-82
2023/11/03 09:37:56;;;;;;;7.82;2.28;;;7.10;99.90;;;;;;4989048;28;20654;-84
2023/11/03 09:40:43;;;;;;;4.38;2.13;;;7.10;99.90;;;;;;5040152;28;20050;-85
2023/11/03 09:43:34;;;;;;;4.30;2.00;;;7.20;93.30;;;;;;4977514;28;20476;-85
2023/11/03 09:46:47;;;;;;;5.20;2.45;;;7.20;1.00;;;;;;5019512;28;20049;-84
2023/11/03 09:49:35;;;;;;;;;;;7.30;8.40;;;;;;5025003;28;20068;-83
2023/11/03 09:52:23;;;;;;;7.00;2.00;;;7.40;1.00;;;;;;4975611;28;20024;-83
2023/11/03 09:55:15;;;;;;;6.63;1.92;;;7.40;99.90;;;;;;5024638;28;20043;-81
2023/11/03 09:58:05;;;;;;;6.20;1.70;;;7.40;1.00;;;;;;5021732;28;21028;-85
2023/11/03 10:01:04;;;;;;;3.33;1.42;;;7.50;1.00;;;;;;5012385;28;20058;-83
2023/11/03 10:03:59;;;;;;;4.35;1.75;;;7.50;99.90;;;;;;5024533;28;20065;-85
2023/11/03 10:07:07;;;;;;;3.28;1.48;;;7.60;99.90;;;;;;4993960;28;20185;-82
2023/11/03 10:09:55;;;;;;;4.13;1.58;;;7.80;1.00;;;;;;5018877;28;20066;-83
2023/11/03 10:12:50;;;;;;;3.15;1.83;;;7.80;99.90;;;;;;5023495;28;20052;-84
2023/11/03 10:15:41;;;;;;;4.35;1.98;;;8.00;99.90;;;;;;5025793;28;20043;-83
2023/11/03 10:18:31;;;;;;;3.42;1.58;;;7.90;1.00;;;;;;5025236;28;20126;-84
2023/11/03 10:21:18;;;;;;;3.90;1.65;;;7.80;1.00;;;;;;4993509;28;20051;-81
2023/11/03 10:24:15;;;;;;;4.93;1.67;;;7.90;99.90;;;;;;4976133;28;20051;-83
2023/11/03 10:27:06;;;;;;;7.72;1.50;;;7.90;1.00;;;;;;5027105;28;20055;-85
2023/11/03 10:29:54;;;;;;;3.35;1.40;;;7.80;1.00;;;;;;5050579;28;20065;-83
2023/11/03 10:32:43;;;;;;;8.50;1.30;;;7.70;1.00;;;;;;5012761;28;20073;-83
2023/11/03 10:35:41;;;;;;;3.45;1.20;;;7.80;1.00;;;;;;4970750;28;20165;-84
2023/11/03 10:38:29;;;;;;;3.92;1.27;;;7.80;99.90;;;;;;4965963;28;20057;-83
2023/11/03 10:41:18;;;;;;;2.67;1.45;;;7.90;99.90;;;;;;5014426;28;20123;-84
2023/11/03 10:44:11;;;;;;;2.47;1.45;;;7.90;99.90;;;;;;4980442;28;20043;-80
2023/11/03 10:47:08;;;;;;;4.55;1.48;;;8.00;99.90;;;;;;5022239;28;20054;-84
2023/11/03 10:50:09;;;;;;;5.60;1.90;;;8.00;99.90;;;;;;4969155;28;20054;-85
2023/11/03 10:53:29;;;;;;;2.88;1.30;;;8.00;15.90;;;;;;5023419;28;20042;-84
2023/11/03 10:56:17;;;;;;;3.08;1.23;;;8.00;9.40;;;;;;4966449;28;20043;-85
2023/11/03 10:59:26;;;;;;;3.75;2.03;;;8.20;1.00;;;;;;4967390;28;20524;-82
2023/11/03 11:02:40;;;;;;;3.55;1.05;;;8.30;1.00;;;;;;5022813;28;20098;-83
2023/11/03 11:05:43;;;;;;;6.38;3.00;;;8.40;99.90;;;;;;4988890;28;20061;-86
2023/11/03 11:08:36;;;;;;;0.80;0.80;;;8.40;99.90;;;;;;5023689;28;20056;-83
2023/11/03 11:11:31;;;;;;;1.20;0.70;;;8.30;27.20;;;;;;4969240;28;20468;-84
2023/11/03 11:14:24;;;;;;;2.10;1.35;;;8.30;1.00;;;;;;4967529;28;20074;-83
2023/11/03 11:17:40;;;;;;;2.42;0.82;;;8.30;1.00;;;;;;4982831;28;20462;-83
2023/11/03 11:20:31;;;;;;;1.00;0.90;;;8.40;1.00;;;;;;4966177;28;20046;-83
2023/11/03 11:23:33;;;;;;;0.70;0.70;;;8.50;99.90;;;;;;5027443;28;20055;-85
2023/11/03 11:26:24;;;;;;;2.28;0.77;;;8.60;99.90;;;;;;4970265;28;20069;-84
2023/11/03 11:29:29;;;;;;;0.73;0.60;;;8.50;99.90;;;;;;4974893;28;20375;-84
2023/11/03 11:32:27;;;;;;;2.58;0.88;;;8.50;99.90;;;;;;5046342;28;20400;-85
2023/11/03 11:35:24;;;;;;;0.68;0.68;;;8.60;99.90;;;;;;4970743;28;20043;-83
2023/11/03 11:38:13;;;;;;;1.23;0.80;;;8.50;99.90;;;;;;5011960;28;20416;-81
2023/11/03 11:41:05;;;;;;;0.70;0.68;;;8.40;91.90;;;;;;5024462;28;20453;-84
2023/11/03 11:44:04;;;;;;;2.67;0.90;;;8.30;31.20;;;;;;5023404;28;20061;-82
2023/11/03 11:47:16;;;;;;;1.25;0.70;;;8.30;90.50;;;;;;5029329;28;20055;-85
2023/11/03 11:50:09;;;;;;;0.90;0.88;;;8.40;24.60;;;;;;5027723;28;20054;-84
2023/11/03 11:53:08;;;;;;;0.82;0.80;;;8.60;31.80;;;;;;5023583;28;20117;-84
2023/11/03 11:56:17;;;;;;;1.13;0.93;;;8.50;10.20;;;;;;5022359;28;20048;-85
2023/11/03 12:02:53;;;;;;;0.93;0.70;;;8.50;12.00;;;;;;5075392;28;20044;-84
2023/11/03 12:05:45;;;;;;;2.30;0.90;;;8.60;17.50;;;;;;4972991;28;20054;-84
2023/11/03 12:09:01;;;;;;;0.68;0.68;;;8.60;18.10;;;;;;5028235;28;20104;-85
2023/11/03 12:12:20;;;;;;;;;;;;;;;;;;;;;
2023/11/03 12:15:20;;;;;;;1.17;0.60;;;8.30;1.00;;;;;;5016276;28;20091;-84
2023/11/03 12:18:16;;;;;;;1.77;0.90;;;8.20;1.00;;;;;;5011120;28;20448;-83
2023/11/03 12:21:05;;;;;;;1.98;0.70;;;8.30;1.00;;;;;;4970532;28;20058;-85
2023/11/03 12:24:15;;;;;;;;;;;;;;;;;;;;;
2023/11/03 12:27:26;;;;;;;1.92;0.90;;;8.40;1.00;;;;;;4966192;28;20138;-83
2023/11/03 12:30:28;;;;;;;0.68;0.68;;;8.30;1.00;;;;;;5031655;28;20665;-84
2023/11/03 12:33:22;;;;;;;1.02;0.73;;;8.30;1.00;;;;;;4975251;28;20043;-83
2023/11/03 12:36:39;;;;;;;1.67;1.00;;;8.20;1.00;;;;;;5024080;28;20043;-84
2023/11/03 12:39:56;;;;;;;2.10;0.82;;;8.20;1.00;;;;;;4978523;28;20054;-82
2023/11/03 12:42:43;;;;;;;1.25;0.80;;;8.30;1.00;;;;;;4995893;28;20042;-82
2023/11/03 12:45:34;;;;;;;1.60;1.05;;;8.20;1.00;;;;;;5046222;28;20059;-82
2023/11/03 12:48:32;;;;;;;2.72;0.80;;;8.30;1.00;;;;;;4975086;28;20055;-83
2023/11/03 12:51:30;;;;;;;0.80;0.80;;;8.40;1.00;;;;;;5035505;28;20050;-83
2023/11/03 12:54:21;;;;;;;3.08;0.90;;;8.30;1.00;;;;;;4978471;28;20047;-80
2023/11/03 12:57:33;;;;;;;1.83;0.90;;;8.30;1.00;;;;;;4974728;28;20055;-83
2023/11/03 13:00:31;;;;;;;3.17;0.90;;;8.40;1.00;;;;;;4971842;28;20039;-85
2023/11/03 13:03:28;;;;;;;1.10;0.73;;;8.40;1.00;;;;;;4972289;28;20087;-84
2023/11/03 13:06:20;;;;;;;1.30;0.90;;;8.50;1.00;;;;;;5018056;28;20058;-86
2023/11/03 13:09:31;;;;;;;1.45;0.85;;;8.50;1.00;;;;;;4970813;28;20035;-86
2023/11/03 13:13:00;;;;;;;1.08;0.80;;;8.50;1.00;;;;;;5010227;28;20438;-86
2023/11/03 13:16:30;;;;;;;2.65;0.90;;;8.60;1.00;;;;;;4977930;28;20069;-85
2023/11/03 13:19:36;;;;;;;2.75;0.95;;;8.40;1.00;;;;;;5034232;28;20590;-83
2023/11/03 13:22:43;;;;;;;2.97;0.90;;;8.30;1.00;;;;;;5033489;28;20048;-84
2023/11/03 13:25:32;;;;;;;1.98;0.98;;;8.30;1.00;;;;;;5006313;28;20320;-83
2023/11/03 13:28:28;;;;;;;3.72;1.13;;;8.10;1.00;;;;;;4967681;28;20035;-85
2023/11/03 13:31:21;;;;;;;1.88;1.00;;;8.10;1.00;;;;;;5019387;28;20434;-84
2023/11/03 13:34:22;;;;;;;;;;;;;;;;;;;;;
2023/11/03 13:37:09;;;;;;;3.03;1.42;;;8.10;1.00;;;;;;5019515;28;20037;-84
2023/11/03 13:40:02;;;;;;;3.05;1.20;;;8.00;1.00;;;;;;4964880;28;20054;-82
2023/11/03 13:42:54;;;;;;;1.83;1.20;;;8.00;1.00;;;;;;5022273;28;20418;-83
2023/11/03 13:45:44;;;;;;;2.55;1.35;;;8.10;1.00;;;;;;5021021;28;20066;-82
2023/11/03 13:48:31;;;;;;;1.40;0.90;;;8.00;1.00;;;;;;5024802;28;20062;-84
2023/11/03 13:51:37;;;;;;;1.30;1.20;;;7.90;1.00;;;;;;5009150;28;20066;-85
2023/11/03 13:54:25;;;;;;;1.73;1.20;;;7.90;1.00;;;;;;5022344;28;20427;-85
2023/11/03 13:57:20;;;;;;;3.25;1.38;;;7.90;1.00;;;;;;5023657;28;20045;-85
2023/11/03 14:00:14;;;;;;;4.25;1.30;;;8.00;1.00;;;;;;5025292;28;20096;-83
2023/11/03 14:03:48;;;;;;;3.08;2.05;;;8.00;1.00;;;;;;5022861;28;20651;-85
2023/11/03 14:06:42;;;;;;;1.55;0.90;;;8.10;1.00;;;;;;5020309;28;20055;-84
2023/11/03 14:10:08;;;;;;;1.50;1.10;;;8.20;1.00;;;;;;5002264;28;20064;-84
2023/11/03 14:12:58;;;;;;;2.35;1.25;;;8.20;1.00;;;;;;5048510;28;20049;-85
2023/11/03 14:15:54;;;;;;;3.33;1.90;;;8.20;1.00;;;;;;5050868;28;20060;-83
2023/11/03 14:18:49;;;;;;;2.97;1.50;;;8.10;1.00;;;;;;5024571;28;20057;-83
2023/11/03 14:21:42;;;;;;;3.47;1.60;;;8.00;74.70;;;;;;5018452;28;20085;-82
2023/11/03 14:24:32;;;;;;;2.67;1.30;;;7.90;99.90;;;;;;4976653;28;20065;-81
2023/11/03 14:27:22;;;;;;;4.57;1.45;;;7.90;99.90;;;;;;5040563;28;20047;-82
2023/11/03 14:30:13;;;;;;;3.42;1.67;;;7.80;99.90;;;;;;4980959;28;20046;-81
2023/11/03 14:33:02;;;;;;;5.97;1.50;;;7.70;99.90;;;;;;5035721;28;20043;-82
2023/11/03 14:35:52;;;;;;;3.83;1.60;;;7.70;99.90;;;;;;4978885;28;20050;-82
2023/11/03 14:38:45;;;;;;;5.22;2.33;;;7.60;99.90;;;;;;4978131;28;20056;-81
2023/11/03 14:41:39;;;;;;;3.40;1.60;;;7.60;99.90;;;;;;4965082;28;20146;-83
2023/11/03 14:44:38;;;;;;;5.18;1.55;;;7.50;99.90;;;;;;5017154;28;20058;-83
2023/11/03 14:47:27;;;;;;;5.82;1.60;;;7.50;99.90;;;;;;4964849;28;20051;-83
2023/11/03 14:50:19;;;;;;;4.60;1.55;;;7.40;99.90;;;;;;4963578;28;20074;-82
2023/11/03 14:53:07;;;;;;;6.75;1.90;;;7.40;99.90;;;;;;5019466;28;20430;-83
2023/11/03 14:55:56;;;;;;;3.13;1.70;;;7.30;99.90;;;;;;4969531;28;20053;-82
2023/11/03 14:58:44;;;;;;;5.88;1.60;;;7.40;99.90;;;;;;5024554;28;20185;-82
2023/11/03 15:01:33;;;;;;;8.68;2.13;;;7.40;99.90;;;;;;5025245;28;20058;-82
2023/11/03 15:04:20;;;;;;;4.25;2.30;;;7.30;1.00;;;;;;4962775;28;20070;-81
2023/11/03 15:07:10;;;;;;;7.45;2.42;;;7.30;1.00;;;;;;4973389;28;20373;-81
2023/11/03 15:10:00;;;;;;;2.45;1.70;;;7.30;1.00;;;;;;4961695;28;20107;-83
2023/11/03 15:12:57;;;;;;;2.15;1.70;;;7.20;1.00;;;;;;4968273;28;20109;-82